Time;durP1;ratioP1;P1;durP2;ratioP2;P2;SDS_P1;SDS_P2;PMS_P1;PMS_P2;Temp;Humidity;BMP_temperature;BMP_pressure;BME280_temperature;BME280_humidity;BME280_pressure;Samples;Min_cycle;Max_cycle;Signal;HPM_P1;HPM_P2
2023/07/05 00:01:30;;;;;;;12.30;6.65;;;18.50;99.90;;;;;;5068247;28;20374;-54
2023/07/05 00:03:56;;;;;;;14.77;7.15;;;18.40;99.90;;;;;;5068246;28;20048;-55
2023/07/05 00:06:22;;;;;;;10.40;6.45;;;18.40;99.90;;;;;;5067433;28;20036;-54
2023/07/05 00:08:48;;;;;;;10.45;6.80;;;18.50;99.90;;;;;;5068391;28;20033;-54
2023/07/05 00:11:14;;;;;;;15.90;7.10;;;18.40;99.90;;;;;;5068099;28;20029;-54
2023/07/05 00:13:40;;;;;;;13.82;6.57;;;18.50;99.90;;;;;;5068469;28;20029;-54
2023/07/05 00:16:06;;;;;;;13.50;6.63;;;18.50;99.90;;;;;;5068074;28;20033;-54
2023/07/05 00:18:32;;;;;;;13.52;6.32;;;18.50;99.90;;;;;;5067357;28;20037;-55
2023/07/05 00:21:02;;;;;;;8.25;5.72;;;18.50;99.90;;;;;;5068369;28;20037;-54
2023/07/05 00:23:32;;;;;;;9.38;5.25;;;18.50;99.90;;;;;;5067796;28;20463;-55
2023/07/05 00:25:57;;;;;;;9.68;5.68;;;18.50;99.90;;;;;;5067613;28;20060;-55
2023/07/05 00:28:23;;;;;;;9.27;5.25;;;18.50;99.90;;;;;;5065109;28;20063;-54
2023/07/05 00:30:49;;;;;;;10.55;5.50;;;18.50;99.90;;;;;;5067532;28;20230;-55
2023/07/05 00:33:14;;;;;;;10.57;5.25;;;18.50;99.90;;;;;;5067243;28;20094;-54
2023/07/05 00:35:51;;;;;;;8.55;5.25;;;18.50;99.90;;;;;;5067500;28;20051;-54
2023/07/05 00:38:18;;;;;;;9.00;5.00;;;18.40;99.90;;;;;;5067561;28;20117;-54
2023/07/05 00:40:44;;;;;;;6.97;5.13;;;18.30;99.90;;;;;;5067323;28;20037;-54
2023/07/05 00:43:11;;;;;;;8.05;5.18;;;18.40;99.90;;;;;;5066229;28;20131;-54
2023/07/05 00:45:54;;;;;;;7.82;4.50;;;18.30;99.90;;;;;;5071352;28;20047;-54
2023/07/05 00:48:51;;;;;;;6.93;4.63;;;18.30;99.90;;;;;;5071481;28;20114;-55
2023/07/05 00:51:20;;;;;;;9.88;4.60;;;18.30;99.90;;;;;;5070563;28;20036;-54
2023/07/05 00:53:46;;;;;;;8.73;4.47;;;18.30;99.90;;;;;;5071803;28;20033;-54
2023/07/05 00:56:21;;;;;;;10.27;4.10;;;18.30;99.90;;;;;;5071076;28;20031;-54
2023/07/05 00:58:47;;;;;;;8.07;4.20;;;18.30;99.90;;;;;;5071745;28;20036;-55
2023/07/05 01:01:12;;;;;;;9.38;4.68;;;18.20;99.90;;;;;;5070436;28;20031;-54
2023/07/05 01:03:40;;;;;;;6.53;4.03;;;18.30;99.90;;;;;;5071107;28;20893;-55
2023/07/05 01:06:07;;;;;;;9.02;4.50;;;18.30;99.90;;;;;;5070620;28;20028;-55
2023/07/05 01:08:32;;;;;;;7.95;4.50;;;18.20;99.90;;;;;;5071549;28;20392;-54
2023/07/05 01:11:08;;;;;;;7.65;4.75;;;18.20;99.90;;;;;;5071273;28;20082;-55
2023/07/05 01:13:41;;;;;;;7.13;4.13;;;18.20;99.90;;;;;;5070526;28;20087;-54
2023/07/05 01:16:18;;;;;;;6.27;4.33;;;18.20;99.90;;;;;;5071392;28;20036;-54
2023/07/05 01:19:06;;;;;;;10.52;4.50;;;18.20;99.90;;;;;;5071183;28;20536;-54
2023/07/05 01:21:56;;;;;;;8.05;4.63;;;18.30;99.90;;;;;;5070937;28;20158;-54
2023/07/05 01:24:25;;;;;;;11.18;4.90;;;18.40;99.90;;;;;;5070068;28;20093;-54
2023/07/05 01:26:58;;;;;;;8.25;4.90;;;18.20;99.90;;;;;;5070888;28;20087;-54
2023/07/05 01:29:59;;;;;;;12.37;5.37;;;18.30;99.90;;;;;;5070869;28;20107;-54
2023/07/05 01:32:36;;;;;;;10.05;5.20;;;18.20;99.90;;;;;;5070251;28;20037;-55
2023/07/05 01:35:20;;;;;;;6.57;4.95;;;18.30;99.90;;;;;;5069451;28;20047;-55
2023/07/05 01:37:46;;;;;;;7.85;4.70;;;18.30;99.90;;;;;;5071072;28;20404;-54
2023/07/05 01:40:20;;;;;;;7.70;4.68;;;18.30;99.90;;;;;;5069977;28;20300;-55
2023/07/05 01:42:52;;;;;;;5.63;4.90;;;18.30;99.90;;;;;;5070757;28;20070;-54
2023/07/05 01:45:26;;;;;;;10.05;4.68;;;18.20;99.90;;;;;;5063898;28;20042;-55
2023/07/05 01:48:03;;;;;;;6.72;4.80;;;18.20;99.90;;;;;;5070948;28;20033;-54
2023/07/05 01:51:05;;;;;;;8.13;4.50;;;18.20;99.90;;;;;;5070413;28;20040;-54
2023/07/05 01:53:43;;;;;;;7.45;4.75;;;18.20;99.90;;;;;;5066339;28;20044;-54
2023/07/05 01:56:16;;;;;;;11.18;4.53;;;18.20;99.90;;;;;;5068534;28;20153;-54
2023/07/05 01:58:45;;;;;;;8.90;4.57;;;18.20;99.90;;;;;;5070504;28;20488;-54
2023/07/05 02:01:14;;;;;;;8.02;4.20;;;18.20;99.90;;;;;;5070049;28;20116;-55
2023/07/05 02:03:41;;;;;;;6.88;3.90;;;18.20;99.90;;;;;;5070387;28;20350;-54
2023/07/05 02:06:08;;;;;;;6.85;4.07;;;18.20;99.90;;;;;;5070289;28;20053;-54
2023/07/05 02:08:39;;;;;;;6.63;3.75;;;18.20;99.90;;;;;;5051965;28;20074;-54
2023/07/05 02:11:05;;;;;;;8.07;3.90;;;18.20;99.90;;;;;;5070013;28;20044;-54
2023/07/05 02:13:31;;;;;;;8.00;4.03;;;18.20;99.90;;;;;;5069966;28;20033;-54
2023/07/05 02:15:57;;;;;;;5.30;3.50;;;18.20;99.90;;;;;;5071009;28;20178;-54
2023/07/05 02:18:22;;;;;;;7.38;3.67;;;18.20;99.90;;;;;;5069328;28;20143;-54
2023/07/05 02:20:48;;;;;;;6.43;3.50;;;18.20;99.90;;;;;;5069982;28;20377;-54
2023/07/05 02:23:13;;;;;;;5.68;3.40;;;18.00;99.90;;;;;;5068398;28;20040;-54
2023/07/05 02:25:39;;;;;;;4.65;3.40;;;18.00;99.90;;;;;;5069853;28;20037;-54
2023/07/05 02:28:07;;;;;;;5.72;3.38;;;17.90;99.90;;;;;;5069845;28;20392;-54
2023/07/05 02:30:35;;;;;;;5.00;3.10;;;17.90;99.90;;;;;;5069093;28;20036;-54
2023/07/05 02:33:01;;;;;;;5.43;2.80;;;17.80;99.90;;;;;;5070002;28;20037;-56
2023/07/05 02:35:26;;;;;;;4.32;3.35;;;17.90;99.90;;;;;;5068885;28;20036;-54
2023/07/05 02:37:52;;;;;;;4.55;3.08;;;17.90;99.90;;;;;;5070000;28;20510;-55
2023/07/05 02:40:17;;;;;;;3.90;3.13;;;17.80;99.90;;;;;;5059818;28;20037;-54
2023/07/05 02:42:43;;;;;;;5.00;3.05;;;17.80;99.90;;;;;;5053813;28;20403;-54
2023/07/05 02:45:09;;;;;;;6.10;2.70;;;17.70;99.90;;;;;;5068882;28;20059;-54
2023/07/05 02:47:34;;;;;;;4.70;2.90;;;17.70;99.90;;;;;;5069843;28;20040;-54
2023/07/05 02:50:00;;;;;;;5.53;2.63;;;17.70;99.90;;;;;;5069839;28;20135;-54
2023/07/05 02:52:26;;;;;;;4.30;2.60;;;17.80;99.90;;;;;;5068452;28;20071;-54
2023/07/05 02:54:51;;;;;;;3.53;2.60;;;17.90;99.90;;;;;;5069389;28;20037;-54
2023/07/05 02:57:17;;;;;;;5.20;2.55;;;17.90;99.90;;;;;;5068773;28;20098;-54
2023/07/05 02:59:42;;;;;;;3.45;2.47;;;17.80;99.90;;;;;;5069363;28;20114;-54
2023/07/05 03:02:10;;;;;;;4.40;2.30;;;17.90;99.90;;;;;;5068242;28;20086;-54
2023/07/05 03:04:37;;;;;;;4.45;1.90;;;17.90;99.90;;;;;;5069341;28;20051;-55
2023/07/05 03:07:02;;;;;;;2.65;1.83;;;17.80;99.90;;;;;;5067434;28;20575;-55
2023/07/05 03:09:28;;;;;;;3.60;1.73;;;17.90;99.90;;;;;;5069075;28;20029;-54
2023/07/05 03:11:53;;;;;;;2.10;1.60;;;17.90;99.90;;;;;;5063219;28;20125;-54
2023/07/05 03:14:19;;;;;;;2.88;1.30;;;17.90;99.90;;;;;;5048849;28;20029;-55
2023/07/05 03:16:44;;;;;;;3.95;1.70;;;17.90;99.90;;;;;;5064285;28;20047;-54
2023/07/05 03:19:10;;;;;;;5.28;1.75;;;17.80;99.90;;;;;;5068490;28;20025;-54
2023/07/05 03:21:36;;;;;;;2.95;1.92;;;17.70;99.90;;;;;;5069138;28;20043;-54
2023/07/05 03:24:01;;;;;;;4.50;1.92;;;17.50;99.90;;;;;;5053094;28;20487;-55
2023/07/05 03:26:27;;;;;;;4.60;1.98;;;17.40;99.90;;;;;;5048578;28;20041;-55
2023/07/05 03:28:52;;;;;;;5.32;2.10;;;17.10;99.90;;;;;;5048079;28;20405;-54
2023/07/05 03:31:18;;;;;;;4.10;2.08;;;16.90;99.90;;;;;;5056107;28;20052;-55
2023/07/05 03:33:44;;;;;;;3.45;2.25;;;16.80;99.90;;;;;;5061745;28;20037;-55
2023/07/05 03:36:15;;;;;;;2.83;1.70;;;16.90;99.90;;;;;;5046067;28;20047;-55
2023/07/05 03:38:41;;;;;;;3.63;1.77;;;16.90;99.90;;;;;;5048749;28;20596;-55
2023/07/05 03:41:11;;;;;;;3.13;2.17;;;16.90;99.90;;;;;;5066432;28;20265;-54
2023/07/05 03:43:37;;;;;;;5.15;2.17;;;16.80;99.90;;;;;;5066531;28;20063;-55
2023/07/05 03:46:05;;;;;;;6.55;2.13;;;16.90;99.90;;;;;;5066076;28;20041;-55
2023/07/05 03:48:35;;;;;;;4.32;2.13;;;16.80;99.90;;;;;;5066531;28;20040;-55
2023/07/05 03:51:00;;;;;;;3.15;2.10;;;16.60;99.90;;;;;;5066400;28;20090;-55
2023/07/05 03:53:27;;;;;;;6.13;2.20;;;16.60;99.90;;;;;;5065997;28;20040;-55
2023/07/05 03:55:52;;;;;;;3.58;2.17;;;16.70;99.90;;;;;;5065340;28;20037;-55
2023/07/05 03:58:19;;;;;;;3.47;2.05;;;16.50;99.90;;;;;;5066528;28;20400;-55
2023/07/05 04:00:48;;;;;;;4.13;2.13;;;16.30;99.90;;;;;;5065920;28;20045;-55
2023/07/05 04:03:13;;;;;;;4.60;2.53;;;16.30;99.90;;;;;;5065788;28;20512;-55
2023/07/05 04:05:39;;;;;;;3.78;1.88;;;16.40;99.90;;;;;;5066440;28;20040;-55
2023/07/05 04:08:05;;;;;;;4.07;2.28;;;16.30;99.90;;;;;;5049941;28;20044;-55
2023/07/05 04:10:30;;;;;;;4.40;2.40;;;16.20;99.90;;;;;;5064808;28;20024;-56
2023/07/05 04:12:56;;;;;;;6.50;2.60;;;16.30;99.90;;;;;;5067081;28;20028;-55
2023/07/05 04:15:21;;;;;;;5.18;2.67;;;16.10;99.90;;;;;;5066845;28;20047;-56
2023/07/05 04:17:47;;;;;;;4.78;2.35;;;16.00;99.90;;;;;;5065246;28;20125;-54
2023/07/05 04:20:13;;;;;;;4.30;2.50;;;15.90;99.90;;;;;;5054453;28;20098;-55
2023/07/05 04:22:40;;;;;;;6.07;2.80;;;16.00;99.90;;;;;;5066398;28;20466;-55
2023/07/05 04:25:08;;;;;;;4.40;2.65;;;16.00;99.90;;;;;;5065651;28;20058;-55
2023/07/05 04:27:34;;;;;;;4.43;2.72;;;15.90;99.90;;;;;;5066074;28;20040;-55
2023/07/05 04:29:59;;;;;;;4.75;2.70;;;16.00;99.90;;;;;;5065278;28;20086;-55
2023/07/05 04:32:25;;;;;;;7.85;2.80;;;16.00;99.90;;;;;;5065023;28;20093;-55
2023/07/05 04:34:51;;;;;;;4.35;2.67;;;16.00;99.90;;;;;;5065610;28;20040;-55
2023/07/05 04:37:17;;;;;;;5.82;3.03;;;16.00;99.90;;;;;;5065507;28;20444;-55
2023/07/05 04:39:43;;;;;;;5.38;2.50;;;16.00;99.90;;;;;;5065368;28;20786;-55
2023/07/05 04:42:08;;;;;;;6.35;2.78;;;16.10;99.90;;;;;;5064067;28;20385;-55
2023/07/05 04:44:34;;;;;;;4.35;2.83;;;16.10;99.90;;;;;;5065730;28;20082;-55
2023/07/05 04:47:00;;;;;;;4.97;3.08;;;16.20;99.90;;;;;;5065367;28;20148;-55
2023/07/05 04:49:25;;;;;;;6.57;2.90;;;16.10;99.90;;;;;;5065469;28;20057;-55
2023/07/05 04:51:51;;;;;;;5.13;2.70;;;16.20;99.90;;;;;;5051652;28;20471;-55
2023/07/05 04:54:17;;;;;;;4.95;3.03;;;16.10;99.90;;;;;;5045407;28;20651;-55
2023/07/05 04:56:42;;;;;;;8.65;2.95;;;16.20;99.90;;;;;;5059176;28;20044;-56
2023/07/05 04:59:10;;;;;;;6.95;3.38;;;16.30;99.90;;;;;;5065313;28;20041;-56
2023/07/05 05:01:36;;;;;;;5.65;3.25;;;16.30;99.90;;;;;;5064631;28;20044;-56
2023/07/05 05:04:02;;;;;;;6.68;3.25;;;16.30;99.90;;;;;;5064431;28;20115;-56
2023/07/05 05:06:28;;;;;;;6.07;3.58;;;16.30;99.90;;;;;;5065478;28;20112;-55
2023/07/05 05:08:53;;;;;;;5.55;3.03;;;16.30;99.90;;;;;;5065761;28;20032;-55
2023/07/05 05:11:19;;;;;;;6.82;3.45;;;16.20;99.90;;;;;;5065426;28;20025;-56
2023/07/05 05:13:44;;;;;;;5.00;3.13;;;16.30;99.90;;;;;;5064794;28;20036;-55
2023/07/05 05:16:10;;;;;;;6.75;3.70;;;16.20;99.90;;;;;;5066321;28;20630;-55
2023/07/05 05:18:39;;;;;;;5.35;3.33;;;16.30;99.90;;;;;;5065742;28;20391;-55
2023/07/05 05:21:04;;;;;;;6.10;3.15;;;16.50;99.90;;;;;;5065276;28;20074;-56
2023/07/05 05:23:30;;;;;;;5.80;2.75;;;16.40;99.90;;;;;;5064432;28;20045;-55
2023/07/05 05:25:56;;;;;;;5.03;3.30;;;16.30;99.90;;;;;;5065115;28;20043;-55
2023/07/05 05:28:22;;;;;;;7.50;3.17;;;16.30;99.90;;;;;;5065434;28;20032;-56
2023/07/05 05:30:48;;;;;;;5.28;3.00;;;16.30;99.90;;;;;;5067930;28;20086;-55
2023/07/05 05:33:16;;;;;;;4.88;3.03;;;16.30;99.90;;;;;;5068565;28;20044;-55
2023/07/05 05:35:49;;;;;;;5.80;3.00;;;16.30;99.90;;;;;;5056122;28;20094;-56
2023/07/05 05:38:17;;;;;;;13.43;3.17;;;16.40;99.90;;;;;;5048878;28;20029;-56
2023/07/05 05:40:42;;;;;;;5.05;3.25;;;16.30;99.90;;;;;;5067791;28;20044;-55
2023/07/05 05:43:08;;;;;;;6.25;3.00;;;16.30;99.90;;;;;;5066524;28;20510;-55
2023/07/05 05:45:34;;;;;;;4.97;3.10;;;16.20;99.90;;;;;;5068500;28;20043;-55
2023/07/05 05:48:00;;;;;;;6.97;2.83;;;16.30;99.90;;;;;;5084148;28;20123;-56
2023/07/05 05:50:25;;;;;;;5.53;3.10;;;16.40;99.90;;;;;;5068511;28;20036;-56
2023/07/05 05:52:51;;;;;;;6.40;3.28;;;16.30;99.90;;;;;;5069042;28;20040;-55
2023/07/05 05:55:17;;;;;;;6.28;3.17;;;16.30;99.90;;;;;;5083113;28;20131;-56
2023/07/05 05:57:42;;;;;;;7.15;2.97;;;16.50;99.90;;;;;;5068105;28;20070;-56
2023/07/05 06:00:09;;;;;;;11.35;3.20;;;16.40;99.90;;;;;;5068109;27;20048;-55
2023/07/05 06:02:36;;;;;;;6.95;2.92;;;16.40;99.90;;;;;;5048400;28;20036;-55
2023/07/05 06:05:03;;;;;;;4.30;2.63;;;16.30;99.90;;;;;;5047938;28;20033;-56
2023/07/05 06:07:29;;;;;;;8.52;2.70;;;16.20;99.90;;;;;;5048319;28;20045;-55
2023/07/05 06:09:54;;;;;;;6.88;3.15;;;16.30;99.90;;;;;;5059209;28;20067;-56
2023/07/05 06:12:20;;;;;;;3.70;2.70;;;16.20;99.90;;;;;;5067471;28;20039;-55
2023/07/05 06:14:45;;;;;;;6.88;3.17;;;16.60;99.90;;;;;;5068119;28;20059;-56
2023/07/05 06:17:11;;;;;;;5.90;2.67;;;16.40;99.90;;;;;;5068837;28;20045;-56
2023/07/05 06:19:37;;;;;;;5.90;2.60;;;16.40;99.90;;;;;;5067632;28;20052;-55
2023/07/05 06:22:03;;;;;;;8.23;2.47;;;16.40;99.90;;;;;;5067638;28;20086;-55
2023/07/05 06:24:28;;;;;;;6.57;2.92;;;16.30;99.90;;;;;;5068093;28;20482;-55
2023/07/05 06:26:54;;;;;;;7.10;2.35;;;16.30;99.90;;;;;;5067820;28;20044;-55
2023/07/05 06:29:19;;;;;;;5.82;2.42;;;16.20;99.90;;;;;;5066981;28;20028;-55
2023/07/05 06:31:45;;;;;;;4.15;2.63;;;16.00;99.90;;;;;;5067512;28;20032;-55
2023/07/05 06:34:10;;;;;;;5.30;2.50;;;16.20;99.90;;;;;;5067287;28;20111;-55
2023/07/05 06:36:36;;;;;;;6.47;2.30;;;16.20;99.90;;;;;;5067356;28;20115;-55
2023/07/05 06:39:03;;;;;;;6.88;2.58;;;16.40;99.90;;;;;;5067245;28;20040;-56
2023/07/05 06:41:29;;;;;;;6.18;2.50;;;16.40;99.90;;;;;;5065449;28;20017;-55
2023/07/05 06:43:55;;;;;;;6.65;2.72;;;16.40;99.90;;;;;;5067800;28;20408;-55
2023/07/05 06:46:20;;;;;;;6.50;2.40;;;16.40;99.90;;;;;;5066361;28;20071;-55
2023/07/05 06:48:46;;;;;;;7.05;2.38;;;16.50;99.90;;;;;;5067418;28;20029;-56
2023/07/05 06:51:11;;;;;;;4.10;2.10;;;16.50;99.90;;;;;;5066281;28;20404;-56
2023/07/05 06:53:37;;;;;;;9.57;2.67;;;16.50;99.90;;;;;;5047242;28;20437;-55
2023/07/05 06:56:02;;;;;;;5.35;2.47;;;16.60;99.90;;;;;;5054598;28;20486;-56
2023/07/05 06:58:28;;;;;;;6.32;2.40;;;16.60;99.90;;;;;;5067336;28;20047;-56
2023/07/05 07:00:54;;;;;;;5.75;2.58;;;16.60;99.90;;;;;;5067589;28;20040;-61
2023/07/05 07:03:20;;;;;;;4.68;2.13;;;16.50;99.90;;;;;;5065584;28;20032;-61
2023/07/05 07:05:53;;;;;;;8.75;2.60;;;16.50;99.90;;;;;;5066991;28;20036;-61
2023/07/05 07:08:19;;;;;;;6.43;2.50;;;16.50;99.90;;;;;;5066835;28;20116;-61
2023/07/05 07:10:45;;;;;;;7.25;2.47;;;16.40;99.90;;;;;;5082244;28;20051;-61
2023/07/05 07:13:10;;;;;;;4.47;2.17;;;16.30;99.90;;;;;;5066366;28;20032;-61
2023/07/05 07:15:36;;;;;;;3.28;2.05;;;16.40;99.90;;;;;;5067499;28;20044;-61
2023/07/05 07:18:02;;;;;;;3.85;2.13;;;16.30;99.90;;;;;;5066110;28;20028;-60
2023/07/05 07:20:27;;;;;;;6.95;2.10;;;16.30;99.90;;;;;;5066528;28;20040;-61
2023/07/05 07:22:53;;;;;;;6.53;2.03;;;16.40;99.90;;;;;;5066534;28;20050;-61
2023/07/05 07:25:19;;;;;;;5.10;2.35;;;16.40;99.90;;;;;;5065661;28;20086;-61
2023/07/05 07:27:44;;;;;;;6.55;2.20;;;16.40;99.90;;;;;;5066806;28;20037;-61
2023/07/05 07:30:10;;;;;;;5.07;2.38;;;16.30;99.90;;;;;;5066373;28;20036;-60
2023/07/05 07:32:36;;;;;;;6.43;2.40;;;16.40;99.90;;;;;;5066129;28;20035;-61
2023/07/05 07:35:02;;;;;;;7.25;2.20;;;16.40;99.90;;;;;;5065552;28;20533;-60
2023/07/05 07:37:30;;;;;;;5.13;2.00;;;16.40;99.90;;;;;;5047292;28;20082;-61
2023/07/05 07:39:55;;;;;;;6.03;2.15;;;16.40;99.90;;;;;;5058909;28;20119;-61
2023/07/05 07:42:21;;;;;;;4.70;1.67;;;16.50;99.90;;;;;;5066366;28;20570;-62
2023/07/05 07:44:47;;;;;;;9.60;2.25;;;17.40;99.90;;;;;;5066358;28;20039;-61
2023/07/05 07:47:12;;;;;;;6.07;2.05;;;16.40;99.90;;;;;;5064995;28;20044;-61
2023/07/05 07:49:38;;;;;;;4.75;1.70;;;16.60;99.90;;;;;;5066285;28;20033;-61
2023/07/05 07:52:04;;;;;;;3.85;1.70;;;16.50;99.90;;;;;;5065666;28;20089;-60
2023/07/05 07:54:31;;;;;;;3.90;1.50;;;16.60;99.90;;;;;;5066187;28;20064;-61
2023/07/05 07:56:57;;;;;;;5.90;2.00;;;16.70;99.90;;;;;;5065878;28;20036;-61
2023/07/05 07:59:24;;;;;;;5.43;2.38;;;16.70;99.90;;;;;;5047128;28;20112;-61
2023/07/05 08:01:50;;;;;;;7.57;2.53;;;16.80;99.90;;;;;;5059755;28;20070;-61
2023/07/05 08:04:16;;;;;;;5.15;1.90;;;16.70;99.90;;;;;;5065288;28;20033;-61
2023/07/05 08:06:46;;;;;;;5.75;1.90;;;16.50;99.90;;;;;;5066120;28;20028;-61
2023/07/05 08:09:16;;;;;;;5.68;1.45;;;16.60;99.90;;;;;;5065222;28;20040;-60
2023/07/05 08:11:42;;;;;;;5.18;1.90;;;16.60;99.90;;;;;;5065868;28;20504;-61
2023/07/05 08:14:09;;;;;;;6.38;2.00;;;16.60;99.90;;;;;;5065786;28;20062;-60
2023/07/05 08:16:35;;;;;;;3.22;1.85;;;16.60;99.90;;;;;;5066897;28;20086;-61
2023/07/05 08:19:00;;;;;;;3.42;1.65;;;16.70;99.90;;;;;;5065934;28;20040;-61
2023/07/05 08:21:26;;;;;;;6.80;2.15;;;16.80;99.90;;;;;;5046474;28;20036;-61
2023/07/05 08:23:51;;;;;;;6.45;1.83;;;16.60;99.90;;;;;;5046090;28;20116;-61
2023/07/05 08:26:17;;;;;;;3.50;1.63;;;16.60;99.90;;;;;;5045176;28;20033;-60
2023/07/05 08:28:43;;;;;;;5.45;1.80;;;16.50;99.90;;;;;;5045927;28;20057;-61
2023/07/05 08:31:09;;;;;;;7.22;1.77;;;16.50;99.90;;;;;;5045697;28;20441;-61
2023/07/05 08:33:36;;;;;;;9.52;2.03;;;16.50;99.90;;;;;;5046267;28;20041;-61
2023/07/05 08:36:33;;;;;;;7.25;1.85;;;16.60;99.90;;;;;;5044862;28;20149;-60
2023/07/05 08:39:01;;;;;;;7.05;1.75;;;16.60;99.90;;;;;;5047839;28;20479;-60
2023/07/05 08:41:45;;;;;;;3.10;1.67;;;16.50;99.90;;;;;;5064436;28;20080;-61
2023/07/05 08:44:22;;;;;;;10.85;2.17;;;16.50;99.90;;;;;;5065403;28;20029;-60
2023/07/05 08:47:07;;;;;;;4.97;2.00;;;16.60;99.90;;;;;;5065447;28;21028;-60
2023/07/05 08:49:39;;;;;;;4.35;1.63;;;16.60;99.90;;;;;;5065532;28;20025;-60
2023/07/05 08:52:12;;;;;;;4.80;1.55;;;16.70;99.90;;;;;;5064937;28;20380;-60
2023/07/05 08:54:39;;;;;;;;;;;16.80;99.90;;;;;;5065707;28;20033;-61
2023/07/05 08:57:13;;;;;;;7.25;1.63;;;17.00;99.90;;;;;;5065177;28;19908;-60
2023/07/05 08:59:52;;;;;;;8.50;1.98;;;16.90;99.90;;;;;;5065716;28;20067;-61
2023/07/05 09:02:22;;;;;;;5.25;1.52;;;17.00;99.90;;;;;;5064905;28;20500;-60
2023/07/05 09:04:49;;;;;;;5.95;1.77;;;17.20;99.90;;;;;;5052630;28;20055;-60
2023/07/05 09:07:43;;;;;;;8.27;2.15;;;17.30;99.90;;;;;;5049252;28;20033;-60
2023/07/05 09:10:19;;;;;;;3.88;2.00;;;17.50;99.90;;;;;;5062680;28;20053;-60
2023/07/05 09:13:18;;;;;;;8.60;1.80;;;17.60;99.90;;;;;;5069384;28;20037;-61
2023/07/05 09:16:04;;;;;;;7.45;1.70;;;17.90;99.90;;;;;;5069304;28;20040;-61
2023/07/05 09:19:24;;;;;;;6.30;1.88;;;18.10;99.90;;;;;;5068392;28;20496;-61
2023/07/05 09:21:58;;;;;;;4.13;1.60;;;18.20;99.90;;;;;;5049106;28;20488;-61
2023/07/05 09:24:33;;;;;;;5.45;1.70;;;18.30;99.90;;;;;;5048906;28;20443;-61
2023/07/05 09:27:05;;;;;;;9.80;1.90;;;18.20;99.90;;;;;;5063233;28;20268;-61
2023/07/05 09:29:50;;;;;;;4.57;1.33;;;18.30;99.90;;;;;;5067739;28;20052;-61
2023/07/05 09:32:39;;;;;;;7.78;1.90;;;18.40;99.90;;;;;;5068357;28;20402;-60
2023/07/05 09:35:34;;;;;;;8.25;1.73;;;18.50;99.90;;;;;;5067873;28;20051;-60
2023/07/05 09:38:21;;;;;;;10.88;2.05;;;18.50;99.90;;;;;;5067818;28;20127;-60
2023/07/05 09:41:13;;;;;;;7.20;1.50;;;18.40;99.90;;;;;;5068637;28;20108;-61
2023/07/05 09:43:38;;;;;;;7.75;2.00;;;18.30;99.90;;;;;;5068569;28;20036;-61
2023/07/05 09:46:14;;;;;;;6.13;1.85;;;18.30;99.90;;;;;;5068723;28;20028;-59
2023/07/05 09:48:43;;;;;;;4.25;1.65;;;18.40;99.90;;;;;;5058116;28;20365;-61
2023/07/05 09:51:11;;;;;;;9.23;2.05;;;18.40;99.90;;;;;;5066293;28;20037;-60
2023/07/05 09:53:51;;;;;;;7.47;1.60;;;18.50;99.90;;;;;;5070128;28;20032;-60
2023/07/05 09:56:27;;;;;;;6.18;2.10;;;18.70;99.90;;;;;;5069641;28;20464;-60
2023/07/05 09:59:12;;;;;;;12.70;2.13;;;18.80;99.90;;;;;;5069793;28;20063;-61
2023/07/05 10:01:41;;;;;;;6.65;1.65;;;19.00;99.90;;;;;;5069874;28;20116;-61
2023/07/05 10:04:08;;;;;;;5.78;1.55;;;19.10;99.90;;;;;;5069907;28;20090;-60
2023/07/05 10:06:37;;;;;;;6.07;1.67;;;;;;;;;;5070123;28;20033;-61
2023/07/05 10:09:13;;;;;;;7.53;1.90;;;19.60;99.90;;;;;;5069626;28;20123;-60
2023/07/05 10:11:45;;;;;;;5.03;1.70;;;19.70;99.90;;;;;;5069899;28;20389;-60
2023/07/05 10:14:17;;;;;;;8.93;1.88;;;19.70;99.90;;;;;;5069622;28;20036;-60
2023/07/05 10:16:54;;;;;;;7.93;1.65;;;19.60;99.90;;;;;;5070482;28;20029;-61
2023/07/05 10:19:28;;;;;;;7.35;1.92;;;19.50;99.90;;;;;;5069678;28;20025;-60
2023/07/05 10:22:14;;;;;;;6.57;1.85;;;19.70;99.90;;;;;;5069379;28;20028;-61
2023/07/05 10:24:47;;;;;;;9.65;2.08;;;19.60;99.90;;;;;;5069283;28;20044;-60
2023/07/05 10:27:30;;;;;;;9.05;2.40;;;19.50;99.90;;;;;;5069402;28;20040;-60
2023/07/05 10:30:13;;;;;;;9.10;1.92;;;19.50;99.90;;;;;;5069816;28;20071;-61
2023/07/05 10:32:45;;;;;;;6.63;1.80;;;19.40;99.90;;;;;;5049238;28;20040;-60
2023/07/05 10:35:25;;;;;;;7.13;1.70;;;19.40;99.90;;;;;;5048323;28;20283;-60
2023/07/05 10:37:52;;;;;;;7.00;1.75;;;19.30;99.90;;;;;;5049899;28;20044;-61
2023/07/05 10:40:19;;;;;;;4.97;1.60;;;19.20;99.90;;;;;;5064723;28;20394;-60
2023/07/05 10:42:50;;;;;;;5.88;1.70;;;19.20;99.90;;;;;;5069005;28;20035;-60
2023/07/05 10:45:17;;;;;;;4.22;1.50;;;19.10;99.90;;;;;;5070115;28;20048;-60
2023/07/05 10:47:46;;;;;;;4.32;1.50;;;19.10;99.90;;;;;;5069470;28;20354;-61
2023/07/05 10:50:15;;;;;;;6.65;1.63;;;19.20;99.90;;;;;;5068988;28;20033;-60
2023/07/05 10:52:56;;;;;;;5.78;1.33;;;19.40;99.90;;;;;;5069398;28;20029;-60
2023/07/05 10:55:27;;;;;;;8.60;1.75;;;19.40;99.90;;;;;;5068102;28;20044;-60
2023/07/05 10:58:03;;;;;;;6.00;1.88;;;19.30;99.90;;;;;;5049619;28;20450;-60
2023/07/05 11:00:39;;;;;;;7.65;1.40;;;19.30;99.90;;;;;;5051580;28;20043;-60
2023/07/05 11:03:13;;;;;;;9.50;1.75;;;19.40;99.90;;;;;;5068679;28;20090;-60
2023/07/05 11:05:44;;;;;;;8.73;2.15;;;19.50;99.90;;;;;;5068087;28;20068;-61
2023/07/05 11:08:26;;;;;;;10.18;1.60;;;19.40;99.90;;;;;;5068210;28;20028;-60
2023/07/05 11:10:54;;;;;;;8.35;1.73;;;19.30;99.90;;;;;;5049234;28;20124;-61
2023/07/05 11:13:20;;;;;;;10.95;1.52;;;19.50;99.90;;;;;;5048503;28;20032;-63
2023/07/05 11:15:47;;;;;;;6.57;1.65;;;19.60;99.90;;;;;;5056318;28;20040;-61
2023/07/05 11:18:18;;;;;;;8.73;1.65;;;19.80;99.90;;;;;;5068350;28;20448;-60
2023/07/05 11:20:49;;;;;;;11.60;1.88;;;19.90;99.90;;;;;;5068642;28;20040;-61
2023/07/05 11:23:43;;;;;;;5.38;1.48;;;19.90;99.90;;;;;;5068158;28;20037;-61
2023/07/05 11:26:31;;;;;;;7.60;1.77;;;20.00;99.90;;;;;;5067844;28;20112;-60
2023/07/05 11:28:57;;;;;;;6.35;1.55;;;20.30;99.90;;;;;;5068133;28;20068;-61
2023/07/05 11:31:28;;;;;;;6.70;1.63;;;20.40;99.90;;;;;;5068099;28;20507;-60
2023/07/05 11:34:25;;;;;;;5.45;1.38;;;20.30;99.90;;;;;;5068804;28;20128;-60
2023/07/05 11:37:06;;;;;;;6.13;1.35;;;20.10;99.90;;;;;;5068259;28;20033;-61
2023/07/05 11:39:40;;;;;;;6.10;1.50;;;19.90;99.90;;;;;;5066467;28;20032;-61
2023/07/05 11:42:15;;;;;;;5.82;1.40;;;20.00;99.90;;;;;;5064931;28;20135;-60
2023/07/05 11:44:44;;;;;;;7.05;1.67;;;20.10;99.90;;;;;;5046735;28;20032;-61
2023/07/05 11:47:24;;;;;;;6.47;1.40;;;20.40;99.90;;;;;;5065039;28;20043;-60
2023/07/05 11:49:56;;;;;;;7.32;1.80;;;20.40;99.90;;;;;;5058250;28;20565;-60
2023/07/05 11:52:33;;;;;;;5.88;1.63;;;20.30;99.90;;;;;;5066181;28;20090;-61
2023/07/05 11:55:13;;;;;;;6.65;1.20;;;20.40;99.90;;;;;;5065919;28;20040;-60
2023/07/05 11:57:56;;;;;;;8.23;1.70;;;20.60;99.90;;;;;;5064970;28;20025;-60
2023/07/05 12:00:35;;;;;;;7.28;1.77;;;20.80;99.90;;;;;;5057301;28;20037;-60
2023/07/05 12:03:17;;;;;;;5.00;1.50;;;20.70;99.90;;;;;;5066096;28;20039;-60
2023/07/05 12:05:44;;;;;;;5.82;1.50;;;20.50;99.90;;;;;;5066031;28;20029;-61
2023/07/05 12:08:18;;;;;;;5.03;1.63;;;20.40;99.90;;;;;;5066044;28;20043;-60
2023/07/05 12:10:55;;;;;;;7.85;1.60;;;20.50;99.90;;;;;;5061826;28;20029;-60
2023/07/05 12:13:26;;;;;;;5.07;1.20;;;20.60;99.90;;;;;;5045757;28;20744;-60
2023/07/05 12:15:53;;;;;;;5.95;1.40;;;20.70;99.90;;;;;;5054996;28;20497;-61
2023/07/05 12:18:19;;;;;;;7.60;1.42;;;20.80;99.90;;;;;;5065734;28;20032;-61
2023/07/05 12:20:53;;;;;;;7.03;1.40;;;20.90;99.90;;;;;;5066499;28;20075;-61
2023/07/05 12:23:18;;;;;;;;;;;20.80;99.90;;;;;;5065717;28;20056;-60
2023/07/05 12:25:52;;;;;;;5.40;1.50;;;21.00;99.90;;;;;;5067585;28;19943;-61
2023/07/05 12:28:27;;;;;;;7.97;1.50;;;21.20;99.90;;;;;;5065900;28;20424;-61
2023/07/05 12:30:58;;;;;;;5.97;1.20;;;21.00;99.90;;;;;;5067597;28;20049;-61
2023/07/05 12:33:30;;;;;;;12.18;1.45;;;20.40;99.90;;;;;;5066541;28;20063;-60
2023/07/05 12:36:13;;;;;;;10.27;1.52;;;21.10;99.90;;;;;;5067457;28;20559;-61
2023/07/05 12:38:41;;;;;;;9.95;1.50;;;21.10;99.90;;;;;;5068311;28;20953;-61
2023/07/05 12:41:21;;;;;;;5.88;1.45;;;21.10;99.90;;;;;;5071532;28;20432;-60
2023/07/05 12:43:49;;;;;;;3.28;1.70;;;21.20;99.90;;;;;;5071204;28;20495;-61
2023/07/05 12:46:24;;;;;;;8.63;1.60;;;21.10;99.90;;;;;;5072046;28;20182;-60
2023/07/05 12:48:50;;;;;;;9.77;1.80;;;21.40;99.90;;;;;;5071731;28;20492;-61
2023/07/05 12:51:24;;;;;;;3.60;1.40;;;21.50;99.90;;;;;;5071535;28;20124;-61
2023/07/05 12:53:56;;;;;;;6.88;1.58;;;21.60;99.90;;;;;;5071837;28;20086;-61
2023/07/05 12:56:30;;;;;;;7.40;1.77;;;21.40;99.90;;;;;;5070253;28;20052;-61
2023/07/05 12:58:59;;;;;;;6.05;1.60;;;21.20;99.90;;;;;;5071962;28;20485;-61
2023/07/05 13:01:32;;;;;;;8.82;2.00;;;20.90;99.90;;;;;;5071050;28;20064;-60
2023/07/05 13:03:59;;;;;;;9.88;1.75;;;20.80;99.90;;;;;;5071242;28;20032;-61